Time;durP1;ratioP1;P1;durP2;ratioP2;P2;SDS_P1;SDS_P2;PMS_P1;PMS_P2;Temp;Humidity;BMP_temperature;BMP_pressure;BME280_temperature;BME280_humidity;BME280_pressure;Samples;Min_cycle;Max_cycle;Signal;HPM_P1;HPM_P2
2022/04/16 00:00:27;;;;;;;12.02;6.97;;;16.40;99.90;;;;;;5091330;28;20105;-76
2022/04/16 00:02:55;;;;;;;9.45;6.78;;;16.40;99.90;;;;;;5046641;28;20047;-75
2022/04/16 00:05:23;;;;;;;8.45;5.95;;;16.40;99.90;;;;;;5064362;28;20048;-76
2022/04/16 00:08:06;;;;;;;10.52;6.28;;;16.40;99.90;;;;;;5086288;28;20043;-77
2022/04/16 00:10:35;;;;;;;12.32;7.88;;;16.30;99.90;;;;;;5059124;28;20497;-76
2022/04/16 00:13:04;;;;;;;10.98;7.63;;;16.40;99.90;;;;;;5069325;28;20101;-75
2022/04/16 00:15:31;;;;;;;9.68;6.90;;;16.40;99.90;;;;;;5081621;28;20043;-76
2022/04/16 00:17:59;;;;;;;10.52;6.82;;;16.40;99.90;;;;;;5069230;28;20405;-76
2022/04/16 00:20:27;;;;;;;12.65;7.90;;;16.40;99.90;;;;;;5058866;28;20052;-75
2022/04/16 00:22:54;;;;;;;8.35;6.65;;;16.40;99.90;;;;;;5094524;28;20039;-75
2022/04/16 00:25:22;;;;;;;11.23;6.65;;;16.40;99.90;;;;;;5080358;28;20506;-76
2022/04/16 00:27:49;;;;;;;8.30;6.72;;;16.40;99.90;;;;;;5067189;28;20097;-75
2022/04/16 00:30:17;;;;;;;8.93;6.95;;;16.40;99.90;;;;;;5063925;28;20072;-77
2022/04/16 00:32:45;;;;;;;8.88;6.32;;;16.30;99.90;;;;;;5039666;28;20078;-75
2022/04/16 00:35:15;;;;;;;11.80;7.60;;;16.40;99.90;;;;;;5080516;28;20444;-74
2022/04/16 00:37:43;;;;;;;10.07;6.45;;;16.30;99.90;;;;;;5071187;28;20048;-74
2022/04/16 00:40:11;;;;;;;8.35;6.13;;;16.30;99.90;;;;;;5063566;28;20059;-74
2022/04/16 00:42:40;;;;;;;10.75;6.10;;;16.30;99.90;;;;;;5075696;28;20055;-75
2022/04/16 00:45:08;;;;;;;15.60;8.02;;;16.30;99.90;;;;;;5047726;28;20582;-76
2022/04/16 00:47:36;;;;;;;8.85;6.88;;;16.20;99.90;;;;;;5062708;28;20089;-75
2022/04/16 00:50:05;;;;;;;11.32;7.07;;;16.20;99.90;;;;;;5078523;28;20040;-75
2022/04/16 00:52:33;;;;;;;14.02;7.38;;;16.20;99.90;;;;;;5057192;28;20043;-75
2022/04/16 00:55:01;;;;;;;8.63;7.32;;;16.20;99.90;;;;;;5072578;28;20052;-75
2022/04/16 00:57:28;;;;;;;9.35;6.63;;;16.20;99.90;;;;;;5053199;28;20401;-75
2022/04/16 00:59:56;;;;;;;8.68;6.55;;;16.10;99.90;;;;;;5079835;28;20748;-75
2022/04/16 01:02:24;;;;;;;9.80;7.10;;;16.10;99.90;;;;;;5074120;28;20052;-75
2022/04/16 01:04:52;;;;;;;9.43;6.35;;;16.10;99.90;;;;;;5069176;28;20063;-76
2022/04/16 01:07:24;;;;;;;13.38;7.45;;;16.00;99.90;;;;;;5035857;28;20059;-75
2022/04/16 01:09:52;;;;;;;11.30;8.07;;;16.00;99.90;;;;;;5050178;28;20052;-74
2022/04/16 01:12:20;;;;;;;11.02;7.38;;;16.00;99.90;;;;;;5090798;28;20439;-75
2022/04/16 01:14:49;;;;;;;10.05;7.10;;;15.90;99.70;;;;;;5062843;28;20048;-77
2022/04/16 01:17:17;;;;;;;8.48;6.25;;;15.90;99.70;;;;;;5079971;28;20039;-72
2022/04/16 01:19:45;;;;;;;10.55;6.82;;;15.90;99.70;;;;;;5067777;28;20105;-73
2022/04/16 01:22:13;;;;;;;12.00;6.65;;;15.90;99.50;;;;;;5047919;28;20063;-74
2022/04/16 01:24:48;;;;;;;12.18;7.30;;;15.80;99.40;;;;;;5075624;28;20135;-72
2022/04/16 01:27:17;;;;;;;10.30;6.72;;;15.80;99.30;;;;;;5056146;28;20040;-73
2022/04/16 01:29:47;;;;;;;8.55;6.43;;;15.80;99.20;;;;;;5072588;28;20063;-73
2022/04/16 01:32:15;;;;;;;12.05;5.78;;;15.80;99.20;;;;;;5090706;28;20135;-73
2022/04/16 01:34:42;;;;;;;9.07;5.97;;;15.80;99.20;;;;;;5039290;28;20405;-73
2022/04/16 01:37:10;;;;;;;8.35;6.47;;;15.70;99.30;;;;;;5056434;28;20044;-73
2022/04/16 01:39:37;;;;;;;10.35;7.25;;;15.70;99.40;;;;;;5073062;28;20143;-74
2022/04/16 01:42:05;;;;;;;9.55;6.80;;;15.70;99.50;;;;;;5039624;28;20085;-73
2022/04/16 01:44:33;;;;;;;9.82;6.05;;;15.70;99.60;;;;;;5055447;28;20051;-73
2022/04/16 01:47:01;;;;;;;8.52;5.88;;;15.70;99.80;;;;;;5055968;28;20067;-73
2022/04/16 01:49:29;;;;;;;8.05;6.13;;;15.70;99.90;;;;;;5089835;28;20047;-73
2022/04/16 01:51:58;;;;;;;9.23;6.20;;;15.70;99.90;;;;;;5069998;28;20032;-73
2022/04/16 01:54:25;;;;;;;10.35;6.35;;;15.70;99.90;;;;;;5057983;28;20100;-73
2022/04/16 01:56:53;;;;;;;7.82;5.65;;;15.70;99.90;;;;;;5075796;28;20096;-73
2022/04/16 01:59:20;;;;;;;11.13;6.95;;;15.70;99.90;;;;;;5076037;28;20035;-76
2022/04/16 02:01:48;;;;;;;7.82;5.68;;;15.70;99.90;;;;;;5059401;28;20574;-74
2022/04/16 02:04:17;;;;;;;7.57;5.95;;;15.70;99.90;;;;;;5092521;28;20151;-74
2022/04/16 02:06:44;;;;;;;9.30;5.85;;;15.70;99.90;;;;;;5075436;28;20043;-74
2022/04/16 02:09:11;;;;;;;9.68;6.13;;;15.70;99.90;;;;;;5075577;28;20052;-73
2022/04/16 02:11:39;;;;;;;8.45;5.72;;;15.70;99.90;;;;;;5076328;28;20047;-73
2022/04/16 02:14:07;;;;;;;7.07;5.20;;;15.80;99.90;;;;;;5059222;28;20405;-74
2022/04/16 02:16:34;;;;;;;13.48;6.00;;;15.70;99.90;;;;;;5059089;28;20055;-73
2022/04/16 02:19:02;;;;;;;14.88;7.95;;;15.70;99.90;;;;;;5075602;28;20087;-73
2022/04/16 02:21:32;;;;;;;12.55;5.72;;;15.70;99.90;;;;;;5092714;28;20047;-73
2022/04/16 02:24:00;;;;;;;8.27;5.93;;;15.70;99.90;;;;;;5110709;28;20397;-73
2022/04/16 02:26:27;;;;;;;7.22;5.43;;;15.80;99.90;;;;;;5075690;28;20060;-73
2022/04/16 02:28:55;;;;;;;10.43;6.50;;;15.80;99.90;;;;;;5092320;28;20493;-73
2022/04/16 02:31:23;;;;;;;8.10;6.45;;;15.80;99.90;;;;;;5075474;28;20051;-72
2022/04/16 02:33:51;;;;;;;9.15;6.15;;;15.80;99.90;;;;;;5110152;28;20554;-72
2022/04/16 02:36:19;;;;;;;9.32;6.72;;;15.80;99.90;;;;;;5075844;28;20109;-72
2022/04/16 02:38:46;;;;;;;9.48;6.00;;;15.80;99.90;;;;;;5075301;28;20144;-73
2022/04/16 02:41:14;;;;;;;12.38;7.25;;;15.80;99.90;;;;;;5052101;28;20071;-74
2022/04/16 02:43:42;;;;;;;11.55;6.30;;;15.80;99.90;;;;;;5052029;28;20080;-73
2022/04/16 02:48:56;;;;;;;11.30;7.33;;;15.80;99.90;;;;;;5034828;28;20119;-73
2022/04/16 02:51:24;;;;;;;8.55;5.95;;;15.80;99.90;;;;;;5052142;28;20067;-73
2022/04/16 02:53:51;;;;;;;12.80;6.72;;;15.80;99.90;;;;;;5019087;28;20051;-73
2022/04/16 02:56:19;;;;;;;7.32;6.13;;;15.70;99.90;;;;;;5052127;28;20441;-73
2022/04/16 02:58:46;;;;;;;11.57;7.15;;;15.70;99.90;;;;;;5018116;28;20098;-73
2022/04/16 03:01:15;;;;;;;10.10;6.53;;;15.70;99.90;;;;;;5038382;28;20391;-73
2022/04/16 03:03:42;;;;;;;10.90;7.38;;;15.70;99.90;;;;;;5055647;28;20071;-73
2022/04/16 03:06:10;;;;;;;9.63;6.68;;;15.70;99.90;;;;;;5039214;28;20072;-73
2022/04/16 03:08:37;;;;;;;11.85;6.97;;;15.70;99.90;;;;;;5055330;28;20386;-73
2022/04/16 03:11:05;;;;;;;11.77;7.18;;;15.70;99.90;;;;;;5038989;28;20059;-73
2022/04/16 03:13:34;;;;;;;8.60;7.15;;;15.60;99.90;;;;;;5038846;28;20147;-73
2022/04/16 03:18:48;;;;;;;10.43;6.85;;;15.60;99.90;;;;;;5055060;28;20036;-74
2022/04/16 03:21:16;;;;;;;9.05;6.78;;;15.60;99.90;;;;;;5021407;28;20051;-73
2022/04/16 03:23:43;;;;;;;11.65;7.05;;;15.60;99.90;;;;;;5038903;28;20047;-73
2022/04/16 03:26:11;;;;;;;7.40;6.05;;;15.60;99.90;;;;;;5038940;28;20098;-73
2022/04/16 03:28:40;;;;;;;9.18;6.03;;;15.50;99.90;;;;;;5022308;28;20048;-73
2022/04/16 03:31:08;;;;;;;9.05;5.97;;;15.50;99.90;;;;;;5073044;28;20049;-74
2022/04/16 03:33:36;;;;;;;8.18;5.68;;;15.50;99.90;;;;;;5038340;28;20068;-73
2022/04/16 03:36:04;;;;;;;8.90;6.22;;;15.50;99.90;;;;;;5055027;28;20041;-74
2022/04/16 03:38:31;;;;;;;9.15;6.25;;;15.50;99.90;;;;;;5021220;28;20075;-75
2022/04/16 03:40:59;;;;;;;12.88;6.43;;;15.50;99.90;;;;;;5066396;28;20123;-74
2022/04/16 03:43:29;;;;;;;8.00;6.32;;;15.50;99.90;;;;;;5038406;28;20098;-73
2022/04/16 03:45:58;;;;;;;8.05;5.60;;;15.50;99.90;;;;;;5054922;28;20106;-74
2022/04/16 03:48:26;;;;;;;10.25;6.35;;;15.50;99.90;;;;;;5072515;28;20135;-73
2022/04/16 03:50:53;;;;;;;13.80;6.13;;;15.50;99.90;;;;;;5037515;28;20040;-73
2022/04/16 03:53:21;;;;;;;10.45;6.65;;;15.50;99.90;;;;;;5054866;28;20080;-73
2022/04/16 04:01:20;;;;;;;11.13;5.50;;;15.50;99.90;;;;;;5038200;28;20044;-74
2022/04/16 04:03:48;;;;;;;8.95;5.97;;;15.50;99.90;;;;;;5037784;28;20063;-73
2022/04/16 04:06:15;;;;;;;9.43;5.80;;;15.50;99.90;;;;;;5037725;28;20481;-74
2022/04/16 04:08:43;;;;;;;9.95;6.03;;;15.50;99.90;;;;;;5037669;28;20059;-74
2022/04/16 04:11:10;;;;;;;7.93;4.88;;;15.50;99.90;;;;;;5053678;28;20514;-73
2022/04/16 04:13:38;;;;;;;9.52;6.45;;;15.50;99.90;;;;;;5037082;28;20576;-73
2022/04/16 04:16:05;;;;;;;16.15;6.20;;;15.50;99.90;;;;;;5021197;28;20067;-74
2022/04/16 04:18:33;;;;;;;10.45;6.80;;;15.50;99.90;;;;;;5039018;28;20079;-74
2022/04/16 04:21:00;;;;;;;12.38;6.45;;;15.50;99.90;;;;;;5082905;28;20136;-74
2022/04/16 04:23:28;;;;;;;12.10;7.55;;;15.50;99.90;;;;;;5046727;28;20128;-74
2022/04/16 04:25:56;;;;;;;8.57;6.70;;;15.60;99.90;;;;;;5086845;28;20047;-75
2022/04/16 04:28:23;;;;;;;15.80;7.43;;;15.60;99.90;;;;;;5101627;28;20409;-75
2022/04/16 04:30:51;;;;;;;11.32;7.38;;;15.60;99.90;;;;;;5039948;28;20559;-82
2022/04/16 04:33:19;;;;;;;11.77;7.97;;;15.60;99.90;;;;;;5085549;28;20039;-74
2022/04/16 04:35:50;;;;;;;14.27;7.57;;;15.60;99.90;;;;;;5050159;28;20531;-73
2022/04/16 04:38:19;;;;;;;11.00;7.20;;;15.60;99.90;;;;;;5073915;28;20036;-73
2022/04/16 04:40:46;;;;;;;10.90;6.35;;;15.60;99.90;;;;;;5073320;28;20046;-73
2022/04/16 04:43:14;;;;;;;12.20;6.50;;;15.60;99.90;;;;;;5056525;28;20052;-73
2022/04/16 04:45:42;;;;;;;14.77;7.22;;;15.60;99.90;;;;;;5056733;28;20052;-74
2022/04/16 04:48:09;;;;;;;11.38;6.63;;;15.60;99.90;;;;;;5073853;28;20036;-73
2022/04/16 04:50:37;;;;;;;9.73;6.43;;;15.60;99.90;;;;;;5040067;28;20386;-73
2022/04/16 04:53:04;;;;;;;10.65;6.70;;;15.70;99.90;;;;;;5073683;28;20056;-73
2022/04/16 04:55:32;;;;;;;10.27;6.65;;;15.70;99.90;;;;;;5073443;28;20044;-74
2022/04/16 04:58:00;;;;;;;10.40;6.82;;;15.70;99.90;;;;;;5039970;28;20047;-74
2022/04/16 05:00:27;;;;;;;14.48;8.05;;;15.70;99.90;;;;;;5056492;28;20398;-74
2022/04/16 05:02:55;;;;;;;12.40;7.30;;;15.70;99.90;;;;;;5039267;28;20151;-73
2022/04/16 05:05:22;;;;;;;8.93;6.45;;;15.70;99.90;;;;;;5073261;28;20119;-74
2022/04/16 05:07:50;;;;;;;12.82;6.72;;;15.70;99.90;;;;;;5073132;28;20056;-74
2022/04/16 05:10:18;;;;;;;11.38;6.55;;;15.70;99.90;;;;;;5073102;28;20397;-74
2022/04/16 05:12:45;;;;;;;13.77;7.18;;;15.70;99.90;;;;;;5072496;28;20040;-76
2022/04/16 05:15:15;;;;;;;15.93;8.75;;;15.70;99.90;;;;;;5073559;28;20086;-74
2022/04/16 05:17:43;;;;;;;12.13;8.27;;;15.70;99.90;;;;;;5089042;28;20074;-74
2022/04/16 05:20:11;;;;;;;13.70;7.53;;;15.70;99.90;;;;;;5039428;28;20136;-75
2022/04/16 05:22:39;;;;;;;17.02;7.95;;;15.70;99.90;;;;;;5055453;28;20118;-74
2022/04/16 05:25:07;;;;;;;12.43;7.40;;;15.80;99.90;;;;;;5055447;28;20040;-76
2022/04/16 05:27:35;;;;;;;13.70;6.95;;;15.80;99.90;;;;;;5039395;28;20052;-76
2022/04/16 05:30:07;;;;;;;12.65;7.10;;;15.80;99.90;;;;;;5073163;28;20126;-75
2022/04/16 05:32:39;;;;;;;11.25;6.93;;;15.80;99.90;;;;;;5056500;28;20047;-75
2022/04/16 05:35:09;;;;;;;8.80;5.60;;;15.90;99.90;;;;;;5056264;28;20052;-74
2022/04/16 05:37:38;;;;;;;9.45;6.38;;;15.90;99.90;;;;;;5056027;28;20054;-77
2022/04/16 05:40:06;;;;;;;9.52;6.38;;;15.80;99.90;;;;;;5055535;28;20082;-75
2022/04/16 05:42:44;;;;;;;9.57;6.32;;;15.90;99.90;;;;;;5072235;28;20047;-74
2022/04/16 05:45:14;;;;;;;8.95;6.30;;;15.90;99.90;;;;;;5072610;28;20032;-75
2022/04/16 05:47:43;;;;;;;7.60;5.63;;;15.90;99.90;;;;;;5038995;28;20105;-75
2022/04/16 05:50:12;;;;;;;11.85;6.97;;;16.00;99.90;;;;;;5072707;28;20047;-75
2022/04/16 05:52:40;;;;;;;12.93;6.55;;;16.00;99.90;;;;;;5039308;28;20048;-76
2022/04/16 05:55:09;;;;;;;9.27;6.13;;;16.10;99.90;;;;;;5039347;28;20055;-75
2022/04/16 05:57:37;;;;;;;9.20;6.53;;;16.10;99.90;;;;;;5055892;28;20059;-75
2022/04/16 06:00:06;;;;;;;9.75;6.20;;;16.10;99.90;;;;;;5038631;28;20063;-74
2022/04/16 06:02:41;;;;;;;10.32;5.88;;;16.20;99.90;;;;;;5073595;28;20070;-73
2022/04/16 06:05:09;;;;;;;12.00;5.70;;;16.20;99.90;;;;;;5072512;28;20060;-73
2022/04/16 06:07:37;;;;;;;12.00;6.90;;;16.30;99.90;;;;;;5072228;28;20070;-74
2022/04/16 06:10:05;;;;;;;9.70;7.15;;;16.30;99.90;;;;;;5069750;28;20569;-74
2022/04/16 06:12:33;;;;;;;11.07;5.63;;;16.40;99.90;;;;;;5072177;28;20127;-73
2022/04/16 06:15:00;;;;;;;10.52;6.65;;;16.40;99.90;;;;;;5039207;28;20052;-74
2022/04/16 06:17:28;;;;;;;8.80;6.03;;;16.50;99.90;;;;;;5055474;28;20130;-73
2022/04/16 06:19:56;;;;;;;8.85;6.32;;;16.50;99.90;;;;;;5072089;28;20406;-73
2022/04/16 06:22:23;;;;;;;10.98;6.10;;;16.60;99.90;;;;;;5071590;28;20036;-73
2022/04/16 06:24:51;;;;;;;11.30;6.20;;;16.60;99.90;;;;;;5055616;28;20048;-73
2022/04/16 06:27:18;;;;;;;9.82;6.40;;;16.70;99.90;;;;;;5038590;28;20040;-73
2022/04/16 06:29:46;;;;;;;9.43;6.68;;;16.70;99.90;;;;;;5038539;28;20097;-75
2022/04/16 06:32:13;;;;;;;11.93;6.10;;;16.70;99.90;;;;;;5072429;28;20043;-74
2022/04/16 06:34:41;;;;;;;8.82;5.55;;;16.80;99.90;;;;;;5038839;28;20051;-75
2022/04/16 06:37:09;;;;;;;9.30;5.90;;;16.80;99.90;;;;;;5059145;28;20055;-75
2022/04/16 06:39:37;;;;;;;9.02;5.60;;;16.90;99.90;;;;;;5058921;28;20067;-73
2022/04/16 06:42:05;;;;;;;9.68;5.78;;;16.90;99.90;;;;;;5043045;28;20059;-75
2022/04/16 06:44:33;;;;;;;7.75;5.55;;;16.90;99.90;;;;;;5075893;28;20511;-74
2022/04/16 06:47:01;;;;;;;9.18;5.60;;;16.90;99.90;;;;;;5042147;28;20056;-73
2022/04/16 06:49:29;;;;;;;11.75;6.10;;;17.00;99.90;;;;;;5076172;28;20072;-73
2022/04/16 06:51:56;;;;;;;10.85;5.18;;;16.90;99.90;;;;;;5076256;28;20040;-73
2022/04/16 06:54:24;;;;;;;12.00;5.88;;;16.90;99.90;;;;;;5058985;28;20047;-73
2022/04/16 06:56:51;;;;;;;9.60;4.97;;;17.00;99.90;;;;;;5058436;28;20051;-74
2022/04/16 06:59:19;;;;;;;10.25;4.43;;;16.90;99.90;;;;;;5058549;28;20051;-73
2022/04/16 07:01:47;;;;;;;9.38;4.95;;;16.90;99.90;;;;;;5075471;28;20052;-73
2022/04/16 07:04:15;;;;;;;11.10;5.00;;;17.00;99.90;;;;;;5076013;28;20409;-73
2022/04/16 07:06:42;;;;;;;7.75;4.65;;;17.10;99.90;;;;;;5058763;28;20044;-74
2022/04/16 07:09:10;;;;;;;8.80;5.00;;;17.10;99.90;;;;;;5038171;28;20406;-74
2022/04/16 07:11:38;;;;;;;12.02;4.75;;;17.10;99.90;;;;;;5038878;28;20047;-73
2022/04/16 07:14:05;;;;;;;6.95;4.03;;;17.30;99.90;;;;;;5038372;28;20060;-73
2022/04/16 07:16:33;;;;;;;7.15;3.97;;;17.40;99.90;;;;;;5067883;28;20093;-73
2022/04/16 07:19:00;;;;;;;7.30;3.60;;;17.40;99.90;;;;;;5058680;28;20052;-73
2022/04/16 07:21:28;;;;;;;7.68;3.88;;;17.50;99.90;;;;;;5075671;28;20044;-73
2022/04/16 07:23:56;;;;;;;8.30;4.25;;;17.50;99.90;;;;;;5058878;28;20070;-73
2022/04/16 07:26:24;;;;;;;6.35;4.30;;;17.60;99.90;;;;;;5073314;28;20200;-73
2022/04/16 07:28:54;;;;;;;5.20;3.65;;;17.70;99.90;;;;;;5058446;28;20139;-74
2022/04/16 07:31:21;;;;;;;6.25;3.78;;;17.70;99.90;;;;;;5075382;28;20046;-73
2022/04/16 07:33:49;;;;;;;9.13;3.67;;;17.80;99.90;;;;;;5056933;28;20043;-73
2022/04/16 07:36:17;;;;;;;7.65;4.07;;;17.90;99.90;;;;;;5058666;28;20044;-73
2022/04/16 07:38:45;;;;;;;7.88;3.75;;;17.90;99.90;;;;;;5075374;28;20466;-73
2022/04/16 07:41:13;;;;;;;6.15;4.00;;;18.00;99.90;;;;;;5058742;28;20036;-73
2022/04/16 07:43:40;;;;;;;8.18;4.00;;;18.10;99.90;;;;;;5054075;28;20059;-73
2022/04/16 07:46:08;;;;;;;4.90;3.17;;;18.20;99.90;;;;;;5038209;28;20509;-73
2022/04/16 07:48:37;;;;;;;8.25;4.03;;;18.30;99.90;;;;;;5054087;28;20040;-74
2022/04/16 07:51:05;;;;;;;11.55;3.72;;;18.30;99.90;;;;;;5054735;28;20059;-74
2022/04/16 07:53:33;;;;;;;9.75;3.85;;;18.30;99.90;;;;;;5070793;28;20048;-73
2022/04/16 07:56:00;;;;;;;6.70;4.15;;;18.40;99.90;;;;;;5027468;28;20056;-75
2022/04/16 07:58:28;;;;;;;6.50;3.63;;;18.50;99.90;;;;;;5054741;28;20052;-73
2022/04/16 08:00:57;;;;;;;5.82;3.80;;;18.50;99.90;;;;;;5054086;28;20608;-74
2022/04/16 08:03:24;;;;;;;9.63;3.85;;;18.70;99.90;;;;;;5053980;28;20048;-73
2022/04/16 08:05:52;;;;;;;8.18;3.97;;;18.80;99.90;;;;;;5054451;28;20889;-74
2022/04/16 08:08:20;;;;;;;6.93;4.57;;;18.80;99.90;;;;;;5072012;28;20045;-73
2022/04/16 08:10:51;;;;;;;9.50;4.38;;;18.90;99.90;;;;;;5053855;28;20094;-74
2022/04/16 08:13:20;;;;;;;9.15;3.83;;;18.90;99.90;;;;;;5037717;28;20040;-74
2022/04/16 08:15:49;;;;;;;6.45;3.97;;;18.90;99.90;;;;;;5054039;28;20823;-74
2022/04/16 08:18:17;;;;;;;5.95;3.45;;;19.00;99.90;;;;;;5037539;28;20051;-73
2022/04/16 08:20:45;;;;;;;6.75;3.80;;;19.00;99.90;;;;;;5036683;28;20040;-75
2022/04/16 08:23:14;;;;;;;10.43;4.15;;;19.00;99.90;;;;;;5037638;28;20131;-73
2022/04/16 08:28:09;;;;;;;9.23;4.57;;;19.00;99.90;;;;;;5054265;28;20079;-74
2022/04/16 08:30:37;;;;;;;7.45;4.07;;;19.10;99.90;;;;;;5053708;28;20044;-73
2022/04/16 08:33:07;;;;;;;8.07;3.10;;;19.20;99.90;;;;;;5036728;28;20056;-73
2022/04/16 08:35:34;;;;;;;6.80;3.97;;;19.30;99.90;;;;;;5053875;28;20048;-74
2022/04/16 08:38:02;;;;;;;6.30;3.50;;;19.40;99.90;;;;;;5071962;28;20044;-73
2022/04/16 08:40:30;;;;;;;6.47;3.28;;;19.50;99.90;;;;;;5053754;28;20040;-74
2022/04/16 08:42:58;;;;;;;7.78;3.45;;;19.50;99.90;;;;;;5054181;28;20389;-73
2022/04/16 08:45:30;;;;;;;6.35;3.80;;;19.60;99.90;;;;;;5037232;28;20049;-75
2022/04/16 08:47:58;;;;;;;8.00;4.05;;;19.80;99.80;;;;;;5053512;28;20059;-74
2022/04/16 08:50:26;;;;;;;8.85;4.15;;;19.90;99.70;;;;;;5070044;28;20051;-73
2022/04/16 08:52:54;;;;;;;12.52;5.05;;;20.00;99.50;;;;;;5052510;28;20037;-73
2022/04/16 08:55:22;;;;;;;5.10;3.17;;;20.00;99.20;;;;;;5070420;28;20052;-75
2022/04/16 08:57:53;;;;;;;9.35;4.00;;;19.90;99.00;;;;;;5036756;28;20765;-74
2022/04/16 09:00:21;;;;;;;7.13;3.92;;;20.00;98.90;;;;;;5070109;28;20052;-74
2022/04/16 09:02:57;;;;;;;4.72;3.45;;;20.00;99.00;;;;;;5052714;28;20056;-74
2022/04/16 09:05:27;;;;;;;8.23;4.10;;;20.00;99.30;;;;;;5070468;28;20041;-73
2022/04/16 09:07:59;;;;;;;8.45;3.47;;;20.00;99.30;;;;;;5036206;28;20433;-73
2022/04/16 09:10:29;;;;;;;7.07;4.50;;;19.90;99.20;;;;;;5053731;28;20079;-73
2022/04/16 09:13:01;;;;;;;8.05;3.70;;;19.80;98.60;;;;;;5070814;28;20052;-74
2022/04/16 09:15:30;;;;;;;11.70;4.70;;;19.60;98.50;;;;;;5052697;28;20048;-74
2022/04/16 09:18:04;;;;;;;6.35;3.50;;;19.70;98.70;;;;;;5052623;28;20055;-74
2022/04/16 09:20:36;;;;;;;9.35;4.68;;;19.80;98.40;;;;;;5053304;28;20483;-73
2022/04/16 09:23:22;;;;;;;6.60;3.55;;;19.90;98.30;;;;;;5069593;28;20052;-73
2022/04/16 09:25:50;;;;;;;7.70;3.63;;;20.00;98.30;;;;;;5053060;28;20368;-73
2022/04/16 09:28:19;;;;;;;7.10;3.55;;;20.20;98.10;;;;;;5052873;28;20049;-73
2022/04/16 09:30:52;;;;;;;9.73;4.32;;;20.20;97.80;;;;;;5035882;28;20052;-73
2022/04/16 09:33:20;;;;;;;7.20;4.00;;;20.30;98.00;;;;;;5069358;28;20052;-74
2022/04/16 09:35:54;;;;;;;8.82;4.55;;;20.30;98.00;;;;;;5052500;28;20056;-72
2022/04/16 09:38:24;;;;;;;6.82;4.28;;;20.30;98.20;;;;;;5052801;28;20059;-73
2022/04/16 09:40:52;;;;;;;8.85;3.67;;;20.40;98.10;;;;;;5070148;28;20051;-75
2022/04/16 09:43:20;;;;;;;7.93;3.72;;;20.40;98.10;;;;;;5052510;28;20092;-73
2022/04/16 09:45:47;;;;;;;5.22;3.58;;;20.40;97.90;;;;;;5019990;28;20151;-73
2022/04/16 09:48:15;;;;;;;7.20;4.15;;;20.40;97.90;;;;;;5052769;28;20473;-72
2022/04/16 09:50:44;;;;;;;8.00;3.25;;;20.40;97.60;;;;;;5051870;28;20131;-74
2022/04/16 09:53:12;;;;;;;5.03;3.42;;;20.40;97.60;;;;;;5035709;28;20458;-73
2022/04/16 09:55:41;;;;;;;5.65;3.17;;;20.40;97.60;;;;;;5052295;28;20048;-77
2022/04/16 09:58:11;;;;;;;5.25;3.40;;;20.30;97.50;;;;;;5052261;28;20502;-75
2022/04/16 10:00:38;;;;;;;5.07;2.95;;;20.20;97.50;;;;;;5035605;28;20418;-73
2022/04/16 10:03:20;;;;;;;5.32;3.25;;;20.20;97.70;;;;;;5037451;28;20052;-73
2022/04/16 10:05:50;;;;;;;6.65;3.47;;;20.10;97.60;;;;;;5069340;28;20056;-74
2022/04/16 10:08:19;;;;;;;8.65;3.53;;;20.10;97.80;;;;;;5052514;28;20513;-73
2022/04/16 10:10:52;;;;;;;7.88;3.42;;;19.90;98.00;;;;;;5051834;28;20083;-73
2022/04/16 10:13:21;;;;;;;6.65;3.35;;;20.00;98.00;;;;;;5052524;28;20067;-72
2022/04/16 10:15:59;;;;;;;4.65;2.75;;;20.00;98.00;;;;;;5035429;28;20056;-72
2022/04/16 10:18:28;;;;;;;4.90;3.38;;;19.90;97.90;;;;;;5019318;28;20474;-72
2022/04/16 10:20:57;;;;;;;10.15;3.75;;;19.90;98.10;;;;;;5051944;28;20879;-73
2022/04/16 10:23:59;;;;;;;5.28;2.80;;;20.00;98.00;;;;;;5019945;28;20490;-72
2022/04/16 10:26:40;;;;;;;5.70;3.40;;;19.90;97.90;;;;;;5052227;28;20064;-72
2022/04/16 10:29:11;;;;;;;5.50;3.35;;;19.90;97.80;;;;;;5035597;28;20084;-72
2022/04/16 10:31:49;;;;;;;9.40;4.57;;;19.90;97.70;;;;;;5051854;28;20048;-72
2022/04/16 10:34:20;;;;;;;7.00;3.78;;;19.70;98.00;;;;;;5051724;28;20071;-73
2022/04/16 10:36:54;;;;;;;11.10;3.72;;;19.70;98.30;;;;;;5069421;28;20036;-73
2022/04/16 10:39:27;;;;;;;5.90;3.45;;;19.80;98.40;;;;;;5051973;28;20049;-73
2022/04/16 10:41:57;;;;;;;8.35;4.22;;;19.90;98.20;;;;;;5071177;28;20072;-75
2022/04/16 10:44:26;;;;;;;6.85;3.75;;;19.90;98.20;;;;;;5055128;28;20452;-73
2022/04/16 10:46:55;;;;;;;6.00;4.15;;;20.00;98.00;;;;;;5054046;28;20055;-72
2022/04/16 10:49:28;;;;;;;6.97;3.88;;;20.00;98.10;;;;;;5071626;28;20052;-73
2022/04/16 10:51:56;;;;;;;4.57;3.05;;;20.20;98.00;;;;;;5089264;28;20181;-72
2022/04/16 10:54:37;;;;;;;4.72;3.35;;;20.20;98.00;;;;;;5054782;28;20486;-73
2022/04/16 10:57:07;;;;;;;8.00;2.88;;;20.30;97.50;;;;;;5037757;28;20060;-73
2022/04/16 10:59:39;;;;;;;5.18;3.55;;;20.30;97.50;;;;;;5071346;28;20095;-72
2022/04/16 11:02:34;;;;;;;6.95;3.25;;;20.20;97.50;;;;;;5055111;28;20048;-73
2022/04/16 11:05:05;;;;;;;6.43;3.53;;;20.00;97.70;;;;;;5070940;28;20056;-74
2022/04/16 11:07:38;;;;;;;5.65;3.33;;;19.90;97.70;;;;;;5089112;28;20039;-73
2022/04/16 11:10:11;;;;;;;10.20;4.40;;;20.00;98.00;;;;;;5038145;28;20061;-73
2022/04/16 11:12:41;;;;;;;4.63;3.00;;;20.00;97.80;;;;;;5038201;28;20397;-73
2022/04/16 11:15:15;;;;;;;6.10;3.10;;;20.00;97.90;;;;;;5054693;28;20486;-75
2022/04/16 11:17:57;;;;;;;7.53;2.95;;;20.00;97.90;;;;;;5070676;28;20044;-73
2022/04/16 11:20:29;;;;;;;;;;;20.10;97.80;;;;;;5055421;28;20399;-73
2022/04/16 11:22:58;;;;;;;6.75;3.58;;;20.40;97.50;;;;;;5090969;28;19928;-72
2022/04/16 11:34:14;;;;;;;11.30;4.20;;;20.70;97.50;;;;;;5092873;28;20051;-72
2022/04/16 11:36:32;;;;;;;6.88;3.20;;;21.40;96.60;;;;;;5053997;28;20481;-73
2022/04/16 11:39:00;;;;;;;7.18;3.72;;;21.40;96.20;;;;;;5053788;28;20052;-71
2022/04/16 11:41:28;;;;;;;3.75;2.83;;;21.40;95.80;;;;;;5053852;28;20040;-72
2022/04/16 11:43:58;;;;;;;11.10;4.13;;;21.40;96.00;;;;;;5037560;28;20052;-73
2022/04/16 11:46:27;;;;;;;9.02;4.10;;;21.30;96.20;;;;;;5037096;28;20160;-73
2022/04/16 11:49:00;;;;;;;5.43;3.13;;;21.30;96.30;;;;;;5072580;28;20049;-72
2022/04/16 11:51:28;;;;;;;11.07;4.13;;;21.20;96.10;;;;;;5054823;28;20380;-71
2022/04/16 11:53:55;;;;;;;5.50;3.60;;;21.00;96.10;;;;;;5021935;28;20234;-71
2022/04/16 11:56:26;;;;;;;10.38;3.65;;;20.80;96.50;;;;;;5055004;28;20047;-71
2022/04/16 11:58:54;;;;;;;6.88;3.60;;;20.80;96.70;;;;;;5021502;28;20052;-72
2022/04/16 12:01:23;;;;;;;4.30;3.15;;;20.80;96.60;;;;;;5054471;28;20037;-72
2022/04/16 12:03:52;;;;;;;6.35;2.88;;;20.80;96.50;;;;;;5054139;28;20057;-71
2022/04/16 12:06:20;;;;;;;4.93;2.92;;;20.80;96.50;;;;;;5038060;28;20506;-73
2022/04/16 12:08:49;;;;;;;7.55;4.47;;;20.90;96.40;;;;;;5053600;28;20486;-72
2022/04/16 12:11:21;;;;;;;4.80;2.70;;;20.90;96.20;;;;;;5054521;28;20061;-73
2022/04/16 12:13:51;;;;;;;7.45;3.28;;;20.80;95.90;;;;;;5021301;28;20574;-72
2022/04/16 12:16:19;;;;;;;8.05;3.50;;;20.80;95.80;;;;;;5037961;28;20051;-72
2022/04/16 12:18:48;;;;;;;9.23;3.85;;;20.90;95.90;;;;;;5037378;28;20813;-71
2022/04/16 12:21:17;;;;;;;5.82;2.92;;;20.90;95.90;;;;;;5038785;28;20102;-72
2022/04/16 12:23:46;;;;;;;8.40;3.50;;;20.90;95.60;;;;;;5075277;28;20064;-71
2022/04/16 12:26:18;;;;;;;8.15;3.58;;;20.90;95.50;;;;;;5040907;28;20555;-72
2022/04/16 12:28:46;;;;;;;7.90;3.58;;;20.90;95.20;;;;;;5057139;28;20432;-72
2022/04/16 12:31:25;;;;;;;12.35;4.38;;;20.90;95.20;;;;;;5057497;28;20052;-71
2022/04/16 12:33:53;;;;;;;8.82;3.58;;;20.90;95.20;;;;;;5024244;28;20143;-71
2022/04/16 12:36:20;;;;;;;4.90;3.35;;;20.90;95.30;;;;;;5057376;28;20374;-71
2022/04/16 12:38:48;;;;;;;5.88;3.33;;;21.10;95.30;;;;;;5023968;28;20379;-71
2022/04/16 12:41:20;;;;;;;4.72;2.72;;;21.10;95.10;;;;;;5057011;28;20044;-73
2022/04/16 12:43:48;;;;;;;5.70;3.40;;;21.10;94.80;;;;;;5056695;28;20087;-73
2022/04/16 12:46:17;;;;;;;8.32;3.30;;;21.10;95.00;;;;;;5056976;28;20094;-71
2022/04/16 12:48:45;;;;;;;6.63;3.45;;;21.10;95.00;;;;;;5056852;28;20462;-73
2022/04/16 12:51:13;;;;;;;4.25;3.03;;;21.10;95.00;;;;;;5040511;28;20049;-71
2022/04/16 12:53:41;;;;;;;5.85;2.92;;;21.10;94.50;;;;;;5057023;28;20032;-71
2022/04/16 12:56:08;;;;;;;7.03;3.50;;;21.00;94.40;;;;;;5056623;28;20063;-74
2022/04/16 12:58:36;;;;;;;6.35;3.30;;;21.00;94.70;;;;;;5056299;28;20135;-73
2022/04/16 13:01:03;;;;;;;6.15;3.20;;;21.00;94.90;;;;;;5039792;28;20556;-73
2022/04/16 13:03:31;;;;;;;6.72;3.92;;;21.10;94.90;;;;;;5039500;28;20505;-72
2022/04/16 13:05:59;;;;;;;6.95;2.85;;;21.00;94.40;;;;;;5039953;28;20459;-73
2022/04/16 13:08:29;;;;;;;7.82;3.20;;;21.10;94.70;;;;;;5023467;28;20766;-72
2022/04/16 13:11:01;;;;;;;5.22;3.10;;;21.00;94.60;;;;;;5040009;28;20052;-76
2022/04/16 13:13:29;;;;;;;6.25;3.28;;;21.00;94.60;;;;;;5023569;28;20498;-74